sensor_id;sensor_type;location;lat;lon;timestamp;P1;durP1;ratioP1;P2;durP2;ratioP2
27313;SDS011;14800;48.174;9.798;2023-02-26T00:01:14;10.23;;;4.20;;
27313;SDS011;14800;48.174;9.798;2023-02-26T00:03:41;11.80;;;4.38;;
27313;SDS011;14800;48.174;9.798;2023-02-26T00:06:07;9.63;;;4.57;;
27313;SDS011;14800;48.174;9.798;2023-02-26T00:08:33;13.68;;;4.80;;
27313;SDS011;14800;48.174;9.798;2023-02-26T00:10:59;9.15;;;4.63;;
27313;SDS011;14800;48.174;9.798;2023-02-26T00:13:26;10.77;;;5.25;;
27313;SDS011;14800;48.174;9.798;2023-02-26T00:15:55;10.18;;;4.60;;
27313;SDS011;14800;48.174;9.798;2023-02-26T00:18:24;5.22;;;3.30;;
27313;SDS011;14800;48.174;9.798;2023-02-26T00:20:50;3.70;;;2.60;;
27313;SDS011;14800;48.174;9.798;2023-02-26T00:23:16;3.70;;;2.28;;
27313;SDS011;14800;48.174;9.798;2023-02-26T00:25:42;4.95;;;2.47;;
27313;SDS011;14800;48.174;9.798;2023-02-26T00:28:09;2.97;;;2.28;;
27313;SDS011;14800;48.174;9.798;2023-02-26T00:30:35;2.92;;;2.20;;
27313;SDS011;14800;48.174;9.798;2023-02-26T00:33:02;2.90;;;1.90;;
27313;SDS011;14800;48.174;9.798;2023-02-26T00:35:28;2.08;;;1.83;;
27313;SDS011;14800;48.174;9.798;2023-02-26T00:40:20;5.00;;;2.70;;
27313;SDS011;14800;48.174;9.798;2023-02-26T00:43:00;4.20;;;2.35;;
27313;SDS011;14800;48.174;9.798;2023-02-26T00:45:27;5.40;;;3.38;;
27313;SDS011;14800;48.174;9.798;2023-02-26T00:50:46;7.10;;;2.97;;
27313;SDS011;14800;48.174;9.798;2023-02-26T00:55:48;3.80;;;2.38;;
27313;SDS011;14800;48.174;9.798;2023-02-26T00:58:14;4.68;;;2.33;;
27313;SDS011;14800;48.174;9.798;2023-02-26T01:00:40;5.88;;;3.30;;
27313;SDS011;14800;48.174;9.798;2023-02-26T01:03:05;2.60;;;2.20;;
27313;SDS011;14800;48.174;9.798;2023-02-26T01:05:31;6.60;;;2.40;;
27313;SDS011;14800;48.174;9.798;2023-02-26T01:10:48;5.45;;;2.67;;
27313;SDS011;14800;48.174;9.798;2023-02-26T01:13:14;6.35;;;2.80;;
27313;SDS011;14800;48.174;9.798;2023-02-26T01:15:41;3.90;;;2.38;;
27313;SDS011;14800;48.174;9.798;2023-02-26T01:18:23;3.88;;;2.38;;
27313;SDS011;14800;48.174;9.798;2023-02-26T01:20:56;6.35;;;3.10;;
27313;SDS011;14800;48.174;9.798;2023-02-26T01:23:25;6.70;;;3.08;;
27313;SDS011;14800;48.174;9.798;2023-02-26T01:28:19;5.03;;;2.63;;
27313;SDS011;14800;48.174;9.798;2023-02-26T01:30:45;4.10;;;2.20;;
27313;SDS011;14800;48.174;9.798;2023-02-26T01:35:57;2.53;;;1.80;;
27313;SDS011;14800;48.174;9.798;2023-02-26T01:39:16;4.32;;;1.90;;
27313;SDS011;14800;48.174;9.798;2023-02-26T01:44:25;4.35;;;1.60;;
27313;SDS011;14800;48.174;9.798;2023-02-26T01:47:03;3.50;;;1.80;;
27313;SDS011;14800;48.174;9.798;2023-02-26T01:49:34;2.45;;;1.70;;
27313;SDS011;14800;48.174;9.798;2023-02-26T01:52:01;2.03;;;1.25;;
27313;SDS011;14800;48.174;9.798;2023-02-26T01:54:30;1.90;;;1.45;;
27313;SDS011;14800;48.174;9.798;2023-02-26T01:57:02;5.65;;;1.80;;
27313;SDS011;14800;48.174;9.798;2023-02-26T01:59:36;1.85;;;1.50;;
27313;SDS011;14800;48.174;9.798;2023-02-26T02:02:04;4.30;;;1.80;;
27313;SDS011;14800;48.174;9.798;2023-02-26T02:04:33;3.60;;;1.70;;
27313;SDS011;14800;48.174;9.798;2023-02-26T02:07:00;4.72;;;2.13;;
27313;SDS011;14800;48.174;9.798;2023-02-26T02:09:25;4.07;;;2.00;;
27313;SDS011;14800;48.174;9.798;2023-02-26T02:15:10;3.83;;;1.83;;
27313;SDS011;14800;48.174;9.798;2023-02-26T02:28:39;2.85;;;1.88;;
27313;SDS011;14800;48.174;9.798;2023-02-26T02:31:30;2.22;;;1.95;;
27313;SDS011;14800;48.174;9.798;2023-02-26T02:36:35;3.00;;;1.90;;
27313;SDS011;14800;48.174;9.798;2023-02-26T02:39:28;2.30;;;2.10;;
27313;SDS011;14800;48.174;9.798;2023-02-26T02:44:38;2.88;;;2.00;;
27313;SDS011;14800;48.174;9.798;2023-02-26T02:47:10;2.42;;;1.83;;
27313;SDS011;14800;48.174;9.798;2023-02-26T02:49:48;5.72;;;2.40;;
27313;SDS011;14800;48.174;9.798;2023-02-26T02:52:33;2.70;;;1.98;;
27313;SDS011;14800;48.174;9.798;2023-02-26T02:55:15;3.45;;;2.13;;
27313;SDS011;14800;48.174;9.798;2023-02-26T02:57:46;3.05;;;2.17;;
27313;SDS011;14800;48.174;9.798;2023-02-26T03:00:17;3.42;;;2.00;;
27313;SDS011;14800;48.174;9.798;2023-02-26T03:02:48;3.30;;;2.40;;
27313;SDS011;14800;48.174;9.798;2023-02-26T03:05:32;6.15;;;2.40;;
27313;SDS011;14800;48.174;9.798;2023-02-26T03:07:59;4.78;;;2.50;;
27313;SDS011;14800;48.174;9.798;2023-02-26T03:10:27;2.83;;;2.00;;
27313;SDS011;14800;48.174;9.798;2023-02-26T03:12:53;3.70;;;2.10;;
27313;SDS011;14800;48.174;9.798;2023-02-26T03:15:25;5.32;;;1.98;;
27313;SDS011;14800;48.174;9.798;2023-02-26T03:18:18;3.90;;;2.00;;
27313;SDS011;14800;48.174;9.798;2023-02-26T03:21:15;3.40;;;2.08;;
27313;SDS011;14800;48.174;9.798;2023-02-26T03:23:44;2.90;;;1.95;;
27313;SDS011;14800;48.174;9.798;2023-02-26T03:26:22;4.10;;;2.03;;
27313;SDS011;14800;48.174;9.798;2023-02-26T03:28:59;8.80;;;2.42;;
27313;SDS011;14800;48.174;9.798;2023-02-26T03:31:54;4.38;;;2.00;;
27313;SDS011;14800;48.174;9.798;2023-02-26T03:37:08;8.13;;;2.17;;
27313;SDS011;14800;48.174;9.798;2023-02-26T03:39:42;5.18;;;2.10;;
27313;SDS011;14800;48.174;9.798;2023-02-26T03:47:30;3.58;;;1.73;;
27313;SDS011;14800;48.174;9.798;2023-02-26T03:50:05;6.47;;;2.00;;
27313;SDS011;14800;48.174;9.798;2023-02-26T03:52:39;3.97;;;1.60;;
27313;SDS011;14800;48.174;9.798;2023-02-26T03:55:08;3.72;;;1.83;;
27313;SDS011;14800;48.174;9.798;2023-02-26T03:57:41;3.20;;;1.77;;
27313;SDS011;14800;48.174;9.798;2023-02-26T04:00:07;3.92;;;1.88;;
27313;SDS011;14800;48.174;9.798;2023-02-26T04:02:47;4.22;;;2.20;;
27313;SDS011;14800;48.174;9.798;2023-02-26T04:05:30;3.40;;;1.90;;
27313;SDS011;14800;48.174;9.798;2023-02-26T04:07:58;3.95;;;2.03;;
27313;SDS011;14800;48.174;9.798;2023-02-26T04:10:26;4.43;;;2.05;;
27313;SDS011;14800;48.174;9.798;2023-02-26T04:13:00;3.00;;;1.80;;
27313;SDS011;14800;48.174;9.798;2023-02-26T04:15:26;4.57;;;2.45;;
27313;SDS011;14800;48.174;9.798;2023-02-26T04:17:52;5.05;;;2.00;;
27313;SDS011;14800;48.174;9.798;2023-02-26T04:20:18;5.85;;;2.00;;
27313;SDS011;14800;48.174;9.798;2023-02-26T04:22:44;5.10;;;2.00;;
27313;SDS011;14800;48.174;9.798;2023-02-26T04:25:09;4.45;;;1.95;;
27313;SDS011;14800;48.174;9.798;2023-02-26T04:27:35;5.28;;;1.90;;
27313;SDS011;14800;48.174;9.798;2023-02-26T04:30:01;2.47;;;1.73;;
27313;SDS011;14800;48.174;9.798;2023-02-26T04:32:26;3.88;;;1.95;;
27313;SDS011;14800;48.174;9.798;2023-02-26T04:34:52;4.00;;;2.10;;
27313;SDS011;14800;48.174;9.798;2023-02-26T04:37:17;4.00;;;1.92;;
27313;SDS011;14800;48.174;9.798;2023-02-26T04:39:43;6.13;;;2.00;;
27313;SDS011;14800;48.174;9.798;2023-02-26T04:42:09;4.32;;;2.00;;
27313;SDS011;14800;48.174;9.798;2023-02-26T04:44:34;2.72;;;1.65;;
27313;SDS011;14800;48.174;9.798;2023-02-26T04:47:00;2.17;;;1.73;;
27313;SDS011;14800;48.174;9.798;2023-02-26T04:49:25;6.43;;;1.90;;
27313;SDS011;14800;48.174;9.798;2023-02-26T04:51:51;5.28;;;2.13;;
27313;SDS011;14800;48.174;9.798;2023-02-26T04:54:16;3.95;;;2.00;;
27313;SDS011;14800;48.174;9.798;2023-02-26T04:56:42;5.13;;;2.40;;
27313;SDS011;14800;48.174;9.798;2023-02-26T04:59:08;5.75;;;2.20;;
27313;SDS011;14800;48.174;9.798;2023-02-26T05:01:33;4.53;;;1.85;;
27313;SDS011;14800;48.174;9.798;2023-02-26T05:03:59;4.10;;;2.17;;
27313;SDS011;14800;48.174;9.798;2023-02-26T05:06:25;4.55;;;2.00;;
27313;SDS011;14800;48.174;9.798;2023-02-26T05:08:50;4.72;;;2.10;;
27313;SDS011;14800;48.174;9.798;2023-02-26T05:11:16;6.38;;;2.00;;
27313;SDS011;14800;48.174;9.798;2023-02-26T05:13:42;4.13;;;2.45;;
27313;SDS011;14800;48.174;9.798;2023-02-26T05:16:07;5.57;;;3.42;;
27313;SDS011;14800;48.174;9.798;2023-02-26T05:18:33;8.13;;;4.00;;
27313;SDS011;14800;48.174;9.798;2023-02-26T05:20:59;4.90;;;2.72;;
27313;SDS011;14800;48.174;9.798;2023-02-26T05:23:25;4.60;;;2.38;;
27313;SDS011;14800;48.174;9.798;2023-02-26T05:25:53;4.18;;;2.33;;
27313;SDS011;14800;48.174;9.798;2023-02-26T05:28:20;3.88;;;2.40;;
27313;SDS011;14800;48.174;9.798;2023-02-26T05:30:45;7.50;;;2.47;;
27313;SDS011;14800;48.174;9.798;2023-02-26T05:33:11;4.75;;;2.50;;
27313;SDS011;14800;48.174;9.798;2023-02-26T05:35:36;4.05;;;2.58;;
27313;SDS011;14800;48.174;9.798;2023-02-26T05:38:02;4.43;;;2.30;;
27313;SDS011;14800;48.174;9.798;2023-02-26T05:40:28;5.63;;;2.30;;
27313;SDS011;14800;48.174;9.798;2023-02-26T05:42:54;5.85;;;2.53;;
27313;SDS011;14800;48.174;9.798;2023-02-26T05:45:19;3.80;;;2.63;;
27313;SDS011;14800;48.174;9.798;2023-02-26T05:47:45;3.67;;;2.20;;
27313;SDS011;14800;48.174;9.798;2023-02-26T05:50:11;5.45;;;1.98;;
27313;SDS011;14800;48.174;9.798;2023-02-26T05:52:36;3.65;;;2.00;;
27313;SDS011;14800;48.174;9.798;2023-02-26T05:55:02;7.82;;;3.95;;
27313;SDS011;14800;48.174;9.798;2023-02-26T05:57:28;4.40;;;2.25;;
27313;SDS011;14800;48.174;9.798;2023-02-26T05:59:53;9.70;;;2.55;;
27313;SDS011;14800;48.174;9.798;2023-02-26T06:02:19;6.32;;;2.80;;
27313;SDS011;14800;48.174;9.798;2023-02-26T06:04:45;6.22;;;2.08;;
27313;SDS011;14800;48.174;9.798;2023-02-26T06:07:11;4.70;;;2.00;;
27313;SDS011;14800;48.174;9.798;2023-02-26T06:09:37;4.93;;;2.00;;
27313;SDS011;14800;48.174;9.798;2023-02-26T06:12:03;3.95;;;2.20;;
27313;SDS011;14800;48.174;9.798;2023-02-26T06:14:28;6.30;;;2.20;;
27313;SDS011;14800;48.174;9.798;2023-02-26T06:16:54;5.93;;;2.00;;
27313;SDS011;14800;48.174;9.798;2023-02-26T06:19:20;5.57;;;1.92;;
27313;SDS011;14800;48.174;9.798;2023-02-26T06:21:46;4.45;;;1.60;;
27313;SDS011;14800;48.174;9.798;2023-02-26T06:24:11;4.80;;;1.75;;
27313;SDS011;14800;48.174;9.798;2023-02-26T06:26:37;4.68;;;1.92;;
27313;SDS011;14800;48.174;9.798;2023-02-26T06:29:03;6.22;;;2.05;;
27313;SDS011;14800;48.174;9.798;2023-02-26T06:31:28;5.72;;;2.40;;
27313;SDS011;14800;48.174;9.798;2023-02-26T06:33:54;3.97;;;1.92;;
27313;SDS011;14800;48.174;9.798;2023-02-26T06:36:20;3.95;;;1.73;;
27313;SDS011;14800;48.174;9.798;2023-02-26T06:38:45;3.30;;;1.40;;
27313;SDS011;14800;48.174;9.798;2023-02-26T06:41:11;4.13;;;1.63;;
27313;SDS011;14800;48.174;9.798;2023-02-26T06:43:37;3.97;;;1.52;;
27313;SDS011;14800;48.174;9.798;2023-02-26T06:46:03;5.38;;;1.80;;
27313;SDS011;14800;48.174;9.798;2023-02-26T06:48:29;3.10;;;1.50;;
27313;SDS011;14800;48.174;9.798;2023-02-26T06:50:55;3.15;;;1.58;;
27313;SDS011;14800;48.174;9.798;2023-02-26T06:53:20;3.53;;;1.38;;
27313;SDS011;14800;48.174;9.798;2023-02-26T06:55:50;3.33;;;1.35;;
27313;SDS011;14800;48.174;9.798;2023-02-26T06:58:16;3.08;;;1.30;;
27313;SDS011;14800;48.174;9.798;2023-02-26T07:00:42;3.28;;;1.17;;
27313;SDS011;14800;48.174;9.798;2023-02-26T07:03:12;3.05;;;1.15;;
27313;SDS011;14800;48.174;9.798;2023-02-26T07:05:39;2.65;;;1.48;;
27313;SDS011;14800;48.174;9.798;2023-02-26T07:08:05;2.88;;;1.33;;
27313;SDS011;14800;48.174;9.798;2023-02-26T07:10:32;2.60;;;1.27;;
27313;SDS011;14800;48.174;9.798;2023-02-26T07:12:58;5.55;;;1.10;;
27313;SDS011;14800;48.174;9.798;2023-02-26T07:15:24;4.57;;;1.40;;
27313;SDS011;14800;48.174;9.798;2023-02-26T07:17:49;3.50;;;1.42;;
27313;SDS011;14800;48.174;9.798;2023-02-26T07:20:15;5.63;;;1.50;;
27313;SDS011;14800;48.174;9.798;2023-02-26T07:22:42;2.22;;;1.30;;
27313;SDS011;14800;48.174;9.798;2023-02-26T07:25:08;3.92;;;1.20;;
27313;SDS011;14800;48.174;9.798;2023-02-26T07:27:34;4.07;;;1.23;;
27313;SDS011;14800;48.174;9.798;2023-02-26T07:29:59;3.20;;;1.30;;
27313;SDS011;14800;48.174;9.798;2023-02-26T07:32:25;3.42;;;1.10;;
27313;SDS011;14800;48.174;9.798;2023-02-26T07:34:50;1.83;;;1.10;;
27313;SDS011;14800;48.174;9.798;2023-02-26T07:37:16;2.97;;;1.35;;
27313;SDS011;14800;48.174;9.798;2023-02-26T07:39:43;5.78;;;3.20;;
27313;SDS011;14800;48.174;9.798;2023-02-26T07:42:09;6.35;;;3.08;;
27313;SDS011;14800;48.174;9.798;2023-02-26T07:44:35;6.90;;;3.10;;
27313;SDS011;14800;48.174;9.798;2023-02-26T07:47:00;4.18;;;2.30;;
27313;SDS011;14800;48.174;9.798;2023-02-26T07:49:26;5.15;;;1.52;;
27313;SDS011;14800;48.174;9.798;2023-02-26T07:51:52;2.78;;;1.20;;
27313;SDS011;14800;48.174;9.798;2023-02-26T07:54:17;4.00;;;2.13;;
27313;SDS011;14800;48.174;9.798;2023-02-26T07:56:43;6.28;;;2.75;;
27313;SDS011;14800;48.174;9.798;2023-02-26T07:59:09;12.13;;;5.15;;
27313;SDS011;14800;48.174;9.798;2023-02-26T08:01:35;14.93;;;5.15;;
27313;SDS011;14800;48.174;9.798;2023-02-26T08:04:01;8.18;;;3.50;;
27313;SDS011;14800;48.174;9.798;2023-02-26T08:06:27;10.82;;;4.60;;
27313;SDS011;14800;48.174;9.798;2023-02-26T08:08:53;3.35;;;1.70;;
27313;SDS011;14800;48.174;9.798;2023-02-26T08:11:19;7.20;;;3.05;;
27313;SDS011;14800;48.174;9.798;2023-02-26T08:13:44;6.90;;;2.70;;
27313;SDS011;14800;48.174;9.798;2023-02-26T08:16:10;3.45;;;1.70;;
27313;SDS011;14800;48.174;9.798;2023-02-26T08:18:36;4.03;;;1.63;;
27313;SDS011;14800;48.174;9.798;2023-02-26T08:21:01;8.48;;;3.03;;
27313;SDS011;14800;48.174;9.798;2023-02-26T08:23:27;3.78;;;2.10;;
27313;SDS011;14800;48.174;9.798;2023-02-26T08:26:04;4.60;;;2.20;;
27313;SDS011;14800;48.174;9.798;2023-02-26T08:28:31;3.67;;;2.00;;
27313;SDS011;14800;48.174;9.798;2023-02-26T08:30:57;5.65;;;1.70;;
27313;SDS011;14800;48.174;9.798;2023-02-26T08:33:23;2.22;;;1.70;;
27313;SDS011;14800;48.174;9.798;2023-02-26T08:35:49;3.28;;;1.80;;
27313;SDS011;14800;48.174;9.798;2023-02-26T08:38:15;2.78;;;1.70;;
27313;SDS011;14800;48.174;9.798;2023-02-26T08:40:42;2.25;;;1.23;;
27313;SDS011;14800;48.174;9.798;2023-02-26T08:43:08;5.38;;;1.60;;
27313;SDS011;14800;48.174;9.798;2023-02-26T08:45:35;2.30;;;1.60;;
27313;SDS011;14800;48.174;9.798;2023-02-26T08:48:01;2.10;;;1.60;;
27313;SDS011;14800;48.174;9.798;2023-02-26T08:50:27;5.50;;;1.50;;
27313;SDS011;14800;48.174;9.798;2023-02-26T08:52:52;3.22;;;1.75;;
27313;SDS011;14800;48.174;9.798;2023-02-26T08:55:18;2.83;;;1.60;;
27313;SDS011;14800;48.174;9.798;2023-02-26T08:57:44;5.50;;;1.65;;
27313;SDS011;14800;48.174;9.798;2023-02-26T09:00:10;2.17;;;1.42;;
27313;SDS011;14800;48.174;9.798;2023-02-26T09:02:36;3.30;;;1.85;;
27313;SDS011;14800;48.174;9.798;2023-02-26T09:05:02;4.15;;;2.28;;
27313;SDS011;14800;48.174;9.798;2023-02-26T09:07:29;10.10;;;3.55;;
27313;SDS011;14800;48.174;9.798;2023-02-26T09:09:54;8.45;;;3.28;;
27313;SDS011;14800;48.174;9.798;2023-02-26T09:12:20;6.03;;;2.47;;
27313;SDS011;14800;48.174;9.798;2023-02-26T09:14:45;4.57;;;2.30;;
27313;SDS011;14800;48.174;9.798;2023-02-26T09:17:11;5.88;;;2.60;;
27313;SDS011;14800;48.174;9.798;2023-02-26T09:19:36;5.65;;;2.10;;
27313;SDS011;14800;48.174;9.798;2023-02-26T09:22:02;4.72;;;2.25;;
27313;SDS011;14800;48.174;9.798;2023-02-26T09:24:28;2.70;;;1.70;;
27313;SDS011;14800;48.174;9.798;2023-02-26T09:26:54;1.80;;;1.60;;
27313;SDS011;14800;48.174;9.798;2023-02-26T09:29:19;3.03;;;1.50;;
27313;SDS011;14800;48.174;9.798;2023-02-26T09:31:45;2.42;;;1.40;;
27313;SDS011;14800;48.174;9.798;2023-02-26T09:34:11;1.77;;;1.67;;
27313;SDS011;14800;48.174;9.798;2023-02-26T09:36:37;2.50;;;1.52;;
27313;SDS011;14800;48.174;9.798;2023-02-26T09:39:03;2.40;;;2.17;;
27313;SDS011;14800;48.174;9.798;2023-02-26T09:41:35;2.10;;;1.67;;
27313;SDS011;14800;48.174;9.798;2023-02-26T09:44:16;2.88;;;1.65;;
27313;SDS011;14800;48.174;9.798;2023-02-26T09:46:53;1.95;;;1.40;;
27313;SDS011;14800;48.174;9.798;2023-02-26T09:52:58;2.20;;;1.60;;
27313;SDS011;14800;48.174;9.798;2023-02-26T09:58:02;2.60;;;1.90;;
27313;SDS011;14800;48.174;9.798;2023-02-26T10:00:36;3.30;;;1.90;;
27313;SDS011;14800;48.174;9.798;2023-02-26T10:03:30;2.95;;;1.90;;
27313;SDS011;14800;48.174;9.798;2023-02-26T10:06:22;5.60;;;2.97;;
27313;SDS011;14800;48.174;9.798;2023-02-26T10:09:07;5.43;;;2.20;;
27313;SDS011;14800;48.174;9.798;2023-02-26T10:12:13;2.60;;;1.60;;
27313;SDS011;14800;48.174;9.798;2023-02-26T10:20:09;1.45;;;1.13;;
27313;SDS011;14800;48.174;9.798;2023-02-26T10:23:00;1.70;;;1.00;;
27313;SDS011;14800;48.174;9.798;2023-02-26T10:25:32;1.58;;;1.30;;
27313;SDS011;14800;48.174;9.798;2023-02-26T10:28:18;2.20;;;1.30;;
27313;SDS011;14800;48.174;9.798;2023-02-26T10:36:24;4.07;;;2.38;;
27313;SDS011;14800;48.174;9.798;2023-02-26T10:38:55;2.00;;;1.45;;
27313;SDS011;14800;48.174;9.798;2023-02-26T10:41:28;1.73;;;1.45;;
27313;SDS011;14800;48.174;9.798;2023-02-26T10:44:09;11.05;;;4.43;;
27313;SDS011;14800;48.174;9.798;2023-02-26T10:46:47;6.55;;;3.92;;
27313;SDS011;14800;48.174;9.798;2023-02-26T10:51:53;4.15;;;2.45;;
27313;SDS011;14800;48.174;9.798;2023-02-26T10:54:40;3.53;;;2.28;;
27313;SDS011;14800;48.174;9.798;2023-02-26T10:57:30;3.80;;;2.78;;
27313;SDS011;14800;48.174;9.798;2023-02-26T10:59:58;2.72;;;2.10;;
27313;SDS011;14800;48.174;9.798;2023-02-26T11:02:38;3.35;;;2.20;;
27313;SDS011;14800;48.174;9.798;2023-02-26T11:05:11;2.70;;;2.10;;
27313;SDS011;14800;48.174;9.798;2023-02-26T11:07:46;3.10;;;2.30;;
27313;SDS011;14800;48.174;9.798;2023-02-26T11:10:16;4.80;;;2.78;;
27313;SDS011;14800;48.174;9.798;2023-02-26T11:12:44;5.32;;;3.22;;
27313;SDS011;14800;48.174;9.798;2023-02-26T11:15:15;11.55;;;5.57;;
27313;SDS011;14800;48.174;9.798;2023-02-26T11:17:43;11.50;;;5.85;;
27313;SDS011;14800;48.174;9.798;2023-02-26T11:20:16;9.05;;;4.57;;
27313;SDS011;14800;48.174;9.798;2023-02-26T11:22:51;5.18;;;3.03;;
27313;SDS011;14800;48.174;9.798;2023-02-26T11:25:21;4.05;;;2.83;;
27313;SDS011;14800;48.174;9.798;2023-02-26T11:27:49;3.83;;;2.30;;
27313;SDS011;14800;48.174;9.798;2023-02-26T11:30:21;2.80;;;2.40;;
27313;SDS011;14800;48.174;9.798;2023-02-26T11:32:52;2.90;;;2.13;;
27313;SDS011;14800;48.174;9.798;2023-02-26T11:35:22;2.40;;;2.20;;
27313;SDS011;14800;48.174;9.798;2023-02-26T11:37:55;3.97;;;2.20;;
27313;SDS011;14800;48.174;9.798;2023-02-26T11:40:39;3.97;;;2.20;;
27313;SDS011;14800;48.174;9.798;2023-02-26T11:43:07;2.55;;;2.30;;
27313;SDS011;14800;48.174;9.798;2023-02-26T11:45:40;2.20;;;1.83;;
27313;SDS011;14800;48.174;9.798;2023-02-26T11:48:10;3.67;;;2.50;;
27313;SDS011;14800;48.174;9.798;2023-02-26T11:50:41;3.63;;;2.42;;
27313;SDS011;14800;48.174;9.798;2023-02-26T11:53:24;3.38;;;2.90;;
27313;SDS011;14800;48.174;9.798;2023-02-26T11:55:58;2.45;;;2.25;;
27313;SDS011;14800;48.174;9.798;2023-02-26T11:58:49;3.60;;;2.40;;
27313;SDS011;14800;48.174;9.798;2023-02-26T12:01:16;2.85;;;2.40;;
27313;SDS011;14800;48.174;9.798;2023-02-26T12:03:43;2.70;;;2.50;;
27313;SDS011;14800;48.174;9.798;2023-02-26T12:06:21;4.45;;;2.20;;
27313;SDS011;14800;48.174;9.798;2023-02-26T12:08:48;2.60;;;2.40;;
27313;SDS011;14800;48.174;9.798;2023-02-26T12:11:26;2.83;;;2.53;;
27313;SDS011;14800;48.174;9.798;2023-02-26T12:27:22;4.50;;;3.30;;
27313;SDS011;14800;48.174;9.798;2023-02-26T12:35:29;2.78;;;2.53;;
27313;SDS011;14800;48.174;9.798;2023-02-26T12:41:15;4.13;;;2.55;;
27313;SDS011;14800;48.174;9.798;2023-02-26T12:43:48;2.53;;;2.28;;
27313;SDS011;14800;48.174;9.798;2023-02-26T12:46:29;2.33;;;2.13;;
27313;SDS011;14800;48.174;9.798;2023-02-26T12:49:26;2.15;;;2.00;;
27313;SDS011;14800;48.174;9.798;2023-02-26T12:52:18;2.50;;;2.30;;
27313;SDS011;14800;48.174;9.798;2023-02-26T12:58:42;2.38;;;2.17;;
27313;SDS011;14800;48.174;9.798;2023-02-26T13:06:43;2.00;;;1.90;;
27313;SDS011;14800;48.174;9.798;2023-02-26T13:09:28;1.85;;;1.75;;
27313;SDS011;14800;48.174;9.798;2023-02-26T13:20:25;2.13;;;1.92;;
27313;SDS011;14800;48.174;9.798;2023-02-26T13:22:57;3.97;;;1.98;;
27313;SDS011;14800;48.174;9.798;2023-02-26T13:28:15;2.00;;;1.80;;
27313;SDS011;14800;48.174;9.798;2023-02-26T13:31:08;2.42;;;2.08;;
27313;SDS011;14800;48.174;9.798;2023-02-26T13:33:51;2.10;;;1.90;;
27313;SDS011;14800;48.174;9.798;2023-02-26T13:36:20;2.40;;;2.20;;
27313;SDS011;14800;48.174;9.798;2023-02-26T13:38:52;2.00;;;1.80;;
27313;SDS011;14800;48.174;9.798;2023-02-26T13:41:52;2.13;;;1.92;;
27313;SDS011;14800;48.174;9.798;2023-02-26T13:44:47;2.30;;;2.03;;
27313;SDS011;14800;48.174;9.798;2023-02-26T13:53:02;2.35;;;1.88;;
27313;SDS011;14800;48.174;9.798;2023-02-26T13:55:50;2.55;;;2.35;;
27313;SDS011;14800;48.174;9.798;2023-02-26T14:01:16;1.60;;;1.50;;
27313;SDS011;14800;48.174;9.798;2023-02-26T14:06:52;4.75;;;3.10;;
27313;SDS011;14800;48.174;9.798;2023-02-26T14:14:42;4.30;;;2.58;;
27313;SDS011;14800;48.174;9.798;2023-02-26T14:19:35;5.03;;;3.25;;
27313;SDS011;14800;48.174;9.798;2023-02-26T14:22:17;6.70;;;4.63;;
27313;SDS011;14800;48.174;9.798;2023-02-26T14:32:28;5.75;;;4.18;;
27313;SDS011;14800;48.174;9.798;2023-02-26T14:34:58;8.10;;;4.30;;
27313;SDS011;14800;48.174;9.798;2023-02-26T14:37:35;3.63;;;3.00;;
27313;SDS011;14800;48.174;9.798;2023-02-26T14:42:37;2.80;;;2.60;;
27313;SDS011;14800;48.174;9.798;2023-02-26T14:45:11;2.70;;;2.17;;
27313;SDS011;14800;48.174;9.798;2023-02-26T14:48:00;2.42;;;2.20;;
27313;SDS011;14800;48.174;9.798;2023-02-26T14:50:32;5.97;;;3.35;;
27313;SDS011;14800;48.174;9.798;2023-02-26T14:56:13;3.25;;;2.08;;
27313;SDS011;14800;48.174;9.798;2023-02-26T15:01:44;2.55;;;2.35;;
27313;SDS011;14800;48.174;9.798;2023-02-26T15:09:27;2.40;;;2.20;;
27313;SDS011;14800;48.174;9.798;2023-02-26T15:12:19;2.92;;;2.10;;
27313;SDS011;14800;48.174;9.798;2023-02-26T15:15:17;2.35;;;2.15;;
27313;SDS011;14800;48.174;9.798;2023-02-26T15:21:09;3.08;;;2.20;;
27313;SDS011;14800;48.174;9.798;2023-02-26T15:23:39;2.08;;;1.45;;
27313;SDS011;14800;48.174;9.798;2023-02-26T15:26:07;2.05;;;1.75;;
27313;SDS011;14800;48.174;9.798;2023-02-26T15:28:42;2.80;;;1.85;;
27313;SDS011;14800;48.174;9.798;2023-02-26T15:31:09;2.58;;;1.90;;
27313;SDS011;14800;48.174;9.798;2023-02-26T15:33:36;2.10;;;1.90;;
27313;SDS011;14800;48.174;9.798;2023-02-26T15:36:12;1.67;;;1.58;;
27313;SDS011;14800;48.174;9.798;2023-02-26T15:38:44;3.17;;;1.63;;
27313;SDS011;14800;48.174;9.798;2023-02-26T15:41:11;2.58;;;1.60;;
27313;SDS011;14800;48.174;9.798;2023-02-26T15:43:38;2.85;;;1.90;;
27313;SDS011;14800;48.174;9.798;2023-02-26T15:46:08;3.65;;;1.88;;
27313;SDS011;14800;48.174;9.798;2023-02-26T15:48:35;2.80;;;1.95;;
27313;SDS011;14800;48.174;9.798;2023-02-26T15:51:06;2.40;;;1.60;;
27313;SDS011;14800;48.174;9.798;2023-02-26T15:56:06;2.97;;;1.70;;
27313;SDS011;14800;48.174;9.798;2023-02-26T15:58:42;2.75;;;1.60;;
27313;SDS011;14800;48.174;9.798;2023-02-26T16:01:17;3.08;;;1.65;;
27313;SDS011;14800;48.174;9.798;2023-02-26T16:03:52;1.90;;;1.58;;
27313;SDS011;14800;48.174;9.798;2023-02-26T16:08:58;1.50;;;1.20;;
27313;SDS011;14800;48.174;9.798;2023-02-26T16:11:26;1.02;;;0.90;;
27313;SDS011;14800;48.174;9.798;2023-02-26T16:13:57;0.88;;;0.85;;
27313;SDS011;14800;48.174;9.798;2023-02-26T16:16:25;1.55;;;0.90;;
27313;SDS011;14800;48.174;9.798;2023-02-26T16:18:53;2.17;;;1.10;;
27313;SDS011;14800;48.174;9.798;2023-02-26T16:21:22;5.40;;;1.95;;
27313;SDS011;14800;48.174;9.798;2023-02-26T16:23:55;2.88;;;1.40;;
27313;SDS011;14800;48.174;9.798;2023-02-26T16:26:27;2.83;;;1.35;;
27313;SDS011;14800;48.174;9.798;2023-02-26T16:29:04;1.10;;;1.00;;
27313;SDS011;14800;48.174;9.798;2023-02-26T16:31:37;1.60;;;1.20;;
27313;SDS011;14800;48.174;9.798;2023-02-26T16:36:57;3.38;;;1.95;;
27313;SDS011;14800;48.174;9.798;2023-02-26T16:39:33;3.10;;;1.92;;
27313;SDS011;14800;48.174;9.798;2023-02-26T16:42:07;6.38;;;2.55;;
27313;SDS011;14800;48.174;9.798;2023-02-26T16:44:51;2.20;;;1.77;;
27313;SDS011;14800;48.174;9.798;2023-02-26T16:47:25;3.47;;;2.15;;
27313;SDS011;14800;48.174;9.798;2023-02-26T16:49:54;2.72;;;1.80;;
27313;SDS011;14800;48.174;9.798;2023-02-26T16:52:21;2.63;;;1.38;;
27313;SDS011;14800;48.174;9.798;2023-02-26T16:54:54;1.63;;;1.10;;
27313;SDS011;14800;48.174;9.798;2023-02-26T16:57:26;5.22;;;3.10;;
27313;SDS011;14800;48.174;9.798;2023-02-26T16:59:59;11.50;;;5.03;;
27313;SDS011;14800;48.174;9.798;2023-02-26T17:02:31;8.40;;;4.15;;
27313;SDS011;14800;48.174;9.798;2023-02-26T17:10:44;8.60;;;4.63;;
27313;SDS011;14800;48.174;9.798;2023-02-26T17:13:31;5.53;;;2.30;;
27313;SDS011;14800;48.174;9.798;2023-02-26T17:15:59;3.65;;;2.10;;
27313;SDS011;14800;48.174;9.798;2023-02-26T17:18:26;3.75;;;2.70;;
27313;SDS011;14800;48.174;9.798;2023-02-26T17:20:52;5.68;;;1.70;;
27313;SDS011;14800;48.174;9.798;2023-02-26T17:23:18;3.25;;;1.50;;
27313;SDS011;14800;48.174;9.798;2023-02-26T17:25:46;3.33;;;1.70;;
27313;SDS011;14800;48.174;9.798;2023-02-26T17:28:25;6.40;;;1.80;;
27313;SDS011;14800;48.174;9.798;2023-02-26T17:30:51;3.00;;;1.70;;
27313;SDS011;14800;48.174;9.798;2023-02-26T17:33:18;2.40;;;1.88;;
27313;SDS011;14800;48.174;9.798;2023-02-26T17:35:44;2.85;;;1.60;;
27313;SDS011;14800;48.174;9.798;2023-02-26T17:38:10;3.17;;;1.50;;
27313;SDS011;14800;48.174;9.798;2023-02-26T17:40:37;2.00;;;1.70;;
27313;SDS011;14800;48.174;9.798;2023-02-26T17:43:04;3.58;;;1.75;;
27313;SDS011;14800;48.174;9.798;2023-02-26T17:45:31;3.83;;;1.60;;
27313;SDS011;14800;48.174;9.798;2023-02-26T17:47:58;2.75;;;1.63;;
27313;SDS011;14800;48.174;9.798;2023-02-26T17:52:57;4.28;;;1.90;;
27313;SDS011;14800;48.174;9.798;2023-02-26T17:55:23;4.13;;;1.85;;
27313;SDS011;14800;48.174;9.798;2023-02-26T17:57:48;2.65;;;1.60;;